Aérodrome :
LOGIN :

S'inscrire | Disclaimer

   EN    FR    IT 

 










Légende :    VFR   VFR Marginal   IFR   IFR Intensif   IFR Très Intensif
Visi : 
Plafond : 
>= 8 km
>= 3000ft
5 à 8 km
1000 à 3000 ft
1500m à 5 km
500 à 1000 ft
800 à 1500m
200 à 500 ft
< 800m
< 200 ft
Symboles :   Orages  Brouillard  Fortes neiges  Fortes précipitations  Vent > 20 kt
SIGMETs :   Divers  Orages  Givrage  Turbulence  Onde Orograph.  Cendres Volcan.







- Altitude de l'aérodrome : 39 ft
- Code IATA : CTA


LICC - Catania Fontanarossa

DERNIER METAR :
  • 250450Z 25003KT 220V280 CAVOK 05/04 Q1018

METARs EXPIRÉS :
  • 250420Z 22002KT CAVOK 05/04 Q1018
  • 250350Z 23003KT CAVOK 06/04 Q1018
  • 250320Z 21004KT 200V310 CAVOK 07/05 Q1018
  • 250250Z 23003KT CAVOK 07/05 Q1018
  • 250220Z 28003KT 230V330 CAVOK 07/05 Q1018

TAF TAF LICC
Valide du 25 à 00h jusqu'au 26 à 00h UTC


242300Z 2500/2524 28008KT CAVOK
BECMG 2510/2512 08010KT
BECMG 2517/2519 VRB05KT
BECMG 2522/2524 28010KT
Pas de NOTAMs connus pour ce terrain.



MET'MAP, la Météo Aéronautique d'un coup d'oeil ! - Copyright ORBIFLY Décembre 2007 - Disclaimer

ORBIFLY MET'MAP TEAM :

Programmation & Développement : Alexandra Zaïnal
Conception & Développement : Baudouin d'Aumeries
Co-Programmation & Développement : Marc-Olivier Méhu
Soutien technique & logistique : Manuel Goepfert

Contact : metmap@orbifly.com




SOURCES & CREDITS :

   NOAA